createdAt,value
2022-10-05T00:00:21.278Z,5.38
2022-10-05T00:02:49.544Z,5.65
2022-10-05T00:05:29.267Z,5.45
2022-10-05T00:08:05.134Z,5.55
2022-10-05T00:10:31.972Z,5.40
2022-10-05T00:12:58.726Z,5.70
2022-10-05T00:15:25.508Z,4.97
2022-10-05T00:17:52.218Z,5.28
2022-10-05T00:20:26.715Z,5.45
2022-10-05T00:23:02.680Z,5.47
2022-10-05T00:25:29.341Z,5.65
2022-10-05T00:28:00.197Z,5.60
2022-10-05T00:30:33.158Z,5.70
2022-10-05T00:33:00.149Z,5.55
2022-10-05T00:35:29.234Z,5.93
2022-10-05T00:37:56.882Z,5.90
2022-10-05T00:40:33.016Z,5.45
2022-10-05T00:43:23.661Z,5.38
2022-10-05T00:46:07.668Z,5.70
2022-10-05T00:49:03.653Z,5.75
2022-10-05T00:51:35.425Z,5.25
2022-10-05T00:54:18.596Z,6.07
2022-10-05T00:57:04.904Z,6.38
2022-10-05T00:59:50.364Z,6.10
2022-10-05T01:02:35.892Z,6.18
2022-10-05T01:05:25.728Z,6.35
2022-10-05T01:08:04.375Z,6.60
2022-10-05T01:10:34.714Z,6.15
2022-10-05T01:13:22.411Z,6.47
2022-10-05T01:16:13.684Z,5.90
2022-10-05T01:18:58.823Z,6.57
2022-10-05T01:21:27.767Z,6.28
2022-10-05T01:24:03.120Z,6.28
2022-10-05T01:26:57.343Z,6.45
2022-10-05T01:32:20.691Z,6.68
2022-10-05T01:35:15.183Z,6.13
2022-10-05T01:37:53.315Z,6.20
2022-10-05T01:40:37.774Z,5.45
2022-10-05T01:43:17.924Z,6.82
2022-10-05T01:46:16.605Z,6.43
2022-10-05T01:49:12.981Z,6.70
2022-10-05T01:51:45.933Z,6.32
2022-10-05T01:54:25.012Z,6.82
2022-10-05T01:57:29.165Z,6.55
2022-10-05T02:00:11.618Z,6.30
2022-10-05T02:02:55.989Z,6.45
2022-10-05T02:05:43.674Z,6.47
2022-10-05T02:08:17.086Z,6.63
2022-10-05T02:10:49.979Z,6.28
2022-10-05T02:13:44.764Z,6.40
2022-10-05T02:16:29.148Z,6.32
2022-10-05T02:19:21.142Z,7.10
2022-10-05T02:21:55.934Z,6.47
2022-10-05T02:24:29.797Z,7.60
2022-10-05T02:26:57.828Z,6.30
2022-10-05T02:29:30.561Z,6.88
2022-10-05T02:32:03.813Z,6.78
2022-10-05T02:34:42.001Z,6.53
2022-10-05T02:37:55.949Z,6.63
2022-10-05T02:40:47.805Z,6.82
2022-10-05T02:43:39.409Z,6.72
2022-10-05T02:46:22.081Z,6.10
2022-10-05T02:49:00.915Z,5.97
2022-10-05T02:51:39.156Z,6.28
2022-10-05T02:54:20.522Z,6.22
2022-10-05T02:56:47.580Z,6.28
2022-10-05T02:59:28.995Z,6.07
2022-10-05T03:02:04.811Z,6.35
2022-10-05T03:04:48.736Z,6.03
2022-10-05T03:07:25.412Z,6.57
2022-10-05T03:10:13.140Z,6.40
2022-10-05T03:13:02.499Z,6.15
2022-10-05T03:15:53.852Z,6.32
2022-10-05T03:18:31.260Z,6.72
2022-10-05T03:21:06.038Z,6.40
2022-10-05T03:24:10.263Z,6.45
2022-10-05T03:26:56.583Z,6.38
2022-10-05T03:29:46.511Z,6.30
2022-10-05T03:32:33.097Z,6.10
2022-10-05T03:35:15.726Z,6.07
2022-10-05T03:38:12.068Z,6.00
2022-10-05T03:40:51.357Z,6.07
2022-10-05T03:43:37.245Z,5.85
2022-10-05T03:46:08.739Z,5.75
2022-10-05T03:49:05.037Z,5.95
2022-10-05T03:51:38.376Z,5.72
2022-10-05T03:54:15.440Z,5.65
2022-10-05T03:57:15.466Z,5.70
2022-10-05T03:59:52.379Z,5.47
2022-10-05T04:02:31.141Z,5.53
2022-10-05T04:05:15.348Z,5.10
2022-10-05T04:08:01.589Z,5.32
2022-10-05T04:10:50.836Z,5.28
2022-10-05T04:13:44.356Z,5.70
2022-10-05T04:16:17.725Z,5.60
2022-10-05T04:18:50.483Z,5.00
2022-10-05T04:21:25.253Z,5.40
2022-10-05T04:24:18.351Z,6.10
2022-10-05T04:27:21.695Z,5.53
2022-10-05T04:30:00.862Z,5.13
2022-10-05T04:32:57.193Z,5.78
2022-10-05T04:35:50.228Z,4.90
2022-10-05T04:38:32.165Z,4.88
2022-10-05T04:41:24.319Z,5.18
2022-10-05T04:44:09.914Z,5.07
2022-10-05T04:46:58.368Z,5.00
2022-10-05T04:50:03.204Z,5.22
2022-10-05T04:52:58.351Z,4.68
2022-10-05T04:55:54.226Z,4.60
2022-10-05T04:58:41.385Z,4.78
2022-10-05T05:01:52.747Z,4.70
2022-10-05T05:04:57.375Z,4.88
2022-10-05T05:07:54.080Z,4.72
2022-10-05T05:10:35.725Z,4.55
2022-10-05T05:13:40.648Z,4.65
2022-10-05T05:16:30.136Z,4.85
2022-10-05T05:19:28.722Z,4.20
2022-10-05T05:22:04.250Z,4.60
2022-10-05T05:24:46.993Z,4.50
2022-10-05T05:27:47.827Z,4.25
2022-10-05T05:30:48.934Z,4.45
2022-10-05T05:33:49.573Z,4.40
2022-10-05T05:36:27.606Z,4.38
2022-10-05T05:39:25.864Z,4.18
2022-10-05T05:42:00.773Z,5.95
2022-10-05T05:44:45.258Z,4.22
2022-10-05T05:50:01.802Z,4.03
2022-10-05T05:52:59.377Z,4.75
2022-10-05T05:55:45.054Z,4.80
2022-10-05T05:58:29.829Z,4.65
2022-10-05T06:01:03.296Z,4.90
2022-10-05T06:03:43.480Z,4.80
2022-10-05T06:06:18.340Z,4.45
2022-10-05T06:08:53.676Z,4.22
2022-10-05T06:11:48.968Z,5.22
2022-10-05T06:14:28.902Z,4.30
2022-10-05T06:17:16.252Z,4.35
2022-10-05T06:19:45.722Z,4.00
2022-10-05T06:22:25.796Z,4.20
2022-10-05T06:24:58.740Z,4.30
2022-10-05T06:27:37.416Z,4.72
2022-10-05T06:30:06.597Z,4.18
2022-10-05T06:32:41.125Z,3.95
2022-10-05T06:35:28.087Z,4.33
2022-10-05T06:38:09.336Z,4.40
2022-10-05T06:40:43.710Z,4.47
2022-10-05T06:43:26.126Z,4.05
2022-10-05T06:46:34.097Z,4.00
2022-10-05T06:49:31.251Z,4.35
2022-10-05T06:52:40.514Z,3.95
2022-10-05T06:55:34.440Z,4.00
2022-10-05T07:00:54.239Z,3.45
2022-10-05T07:03:28.231Z,3.58
2022-10-05T07:06:03.488Z,3.75
2022-10-05T07:08:43.225Z,3.17
2022-10-05T07:11:32.840Z,3.30
2022-10-05T07:14:43.480Z,2.92
2022-10-05T07:17:44.871Z,3.17
2022-10-05T07:20:16.105Z,2.90
2022-10-05T07:23:11.827Z,2.70
2022-10-05T07:25:50.293Z,2.92
2022-10-05T07:28:36.339Z,3.22
2022-10-05T07:31:17.901Z,3.00
2022-10-05T07:33:51.385Z,3.13
2022-10-05T07:36:54.458Z,2.90
2022-10-05T07:39:58.353Z,3.17
2022-10-05T07:42:48.778Z,2.72
2022-10-05T07:45:43.366Z,2.70
2022-10-05T07:48:34.147Z,2.90
2022-10-05T07:51:12.778Z,2.63
2022-10-05T07:53:51.512Z,3.30
2022-10-05T07:56:29.715Z,2.97
2022-10-05T07:59:26.343Z,3.05
2022-10-05T08:02:07.828Z,3.00
2022-10-05T08:04:53.554Z,2.70
2022-10-05T08:07:25.003Z,3.00
2022-10-05T08:10:03.162Z,3.00
2022-10-05T08:12:36.310Z,2.75
2022-10-05T08:15:16.145Z,3.25
2022-10-05T08:17:52.030Z,2.97
2022-10-05T08:20:40.502Z,2.97
2022-10-05T08:23:16.271Z,2.95
2022-10-05T08:26:24.900Z,2.92
2022-10-05T08:29:17.198Z,3.67
2022-10-05T08:31:49.074Z,3.60
2022-10-05T08:34:30.986Z,3.35
2022-10-05T08:37:07.920Z,3.05
2022-10-05T08:39:51.210Z,3.10
2022-10-05T08:42:36.301Z,3.38
2022-10-05T08:45:18.349Z,3.38
2022-10-05T08:48:21.317Z,3.60
2022-10-05T08:51:13.514Z,3.10
2022-10-05T08:54:15.782Z,3.30
2022-10-05T08:56:48.721Z,3.13
2022-10-05T08:59:19.059Z,2.88
2022-10-05T09:02:05.041Z,2.83
2022-10-05T09:04:43.403Z,3.10
2022-10-05T09:07:19.638Z,3.03
2022-10-05T09:10:04.026Z,2.80
2022-10-05T09:12:37.533Z,2.85
2022-10-05T09:18:44.733Z,2.60
2022-10-05T09:21:30.539Z,3.22
2022-10-05T09:24:13.295Z,2.85
2022-10-05T09:26:58.144Z,3.45
2022-10-05T09:29:39.721Z,2.40
2022-10-05T09:32:44.184Z,2.72
2022-10-05T09:35:46.119Z,2.72
2022-10-05T09:38:50.920Z,2.53
2022-10-05T09:41:42.675Z,3.20
2022-10-05T09:44:28.013Z,2.42
2022-10-05T09:47:24.399Z,2.25
2022-10-05T09:50:03.843Z,2.72
2022-10-05T09:52:52.235Z,2.55
2022-10-05T09:55:39.282Z,2.60
2022-10-05T09:58:37.203Z,2.85
2022-10-05T10:01:35.973Z,2.78
2022-10-05T10:04:10.341Z,2.42
2022-10-05T10:07:05.292Z,3.00
2022-10-05T10:09:44.795Z,2.63
2022-10-05T10:12:35.667Z,2.53
2022-10-05T10:15:31.333Z,2.33
2022-10-05T10:18:12.161Z,2.58
2022-10-05T10:21:09.736Z,2.65
2022-10-05T10:24:01.798Z,2.20
2022-10-05T10:26:47.750Z,4.32
2022-10-05T10:29:37.916Z,2.20
2022-10-05T10:32:30.820Z,3.85
2022-10-05T10:35:31.383Z,1.95
2022-10-05T10:38:08.986Z,2.00
2022-10-05T10:40:50.996Z,2.40
2022-10-05T10:43:41.141Z,1.90
2022-10-05T10:46:16.927Z,2.22
2022-10-05T10:48:49.104Z,2.22
2022-10-05T10:51:22.118Z,2.20
2022-10-05T10:54:28.703Z,2.72
2022-10-05T10:57:16.930Z,2.72
2022-10-05T11:00:21.671Z,2.33
2022-10-05T11:03:26.849Z,2.30
2022-10-05T11:06:02.914Z,2.33
2022-10-05T11:08:59.662Z,2.60
2022-10-05T11:12:09.412Z,2.08
2022-10-05T11:15:32.021Z,2.20
2022-10-05T11:18:20.819Z,8.65
2022-10-05T11:21:17.015Z,2.47
2022-10-05T11:24:08.673Z,2.20
2022-10-05T11:26:51.558Z,2.50
2022-10-05T11:29:27.876Z,2.25
2022-10-05T11:32:19.524Z,3.00
2022-10-05T11:35:17.557Z,2.55
2022-10-05T11:38:15.347Z,2.08
2022-10-05T11:41:02.276Z,2.10
2022-10-05T11:44:00.289Z,2.97
2022-10-05T11:46:58.522Z,1.85
2022-10-05T11:49:48.178Z,3.45
2022-10-05T11:52:47.821Z,2.25
2022-10-05T11:55:33.351Z,2.10
2022-10-05T11:58:29.540Z,2.00
2022-10-05T12:01:36.607Z,2.20
2022-10-05T12:04:03.401Z,2.20
2022-10-05T12:07:08.944Z,1.98
2022-10-05T12:10:17.439Z,2.00
2022-10-05T12:13:22.732Z,2.17
2022-10-05T12:16:11.189Z,2.10
2022-10-05T12:18:55.000Z,1.95
2022-10-05T12:21:34.242Z,1.90
2022-10-05T12:24:26.877Z,2.20
2022-10-05T12:27:02.535Z,1.83
2022-10-05T12:29:45.627Z,1.80
2022-10-05T12:32:25.855Z,2.10
2022-10-05T12:35:43.899Z,1.98
2022-10-05T12:38:40.213Z,2.08
2022-10-05T12:41:09.384Z,2.33
2022-10-05T12:44:02.498Z,2.00
2022-10-05T12:46:37.379Z,1.98
2022-10-05T12:49:37.292Z,1.77
2022-10-05T12:52:27.285Z,1.80
2022-10-05T12:55:09.639Z,7.22
2022-10-05T12:57:43.627Z,1.60
2022-10-05T13:00:20.324Z,1.55
2022-10-05T13:02:55.158Z,1.80
2022-10-05T13:05:35.638Z,1.52
2022-10-05T13:08:25.721Z,1.45
2022-10-05T13:11:02.215Z,1.45
2022-10-05T13:13:41.215Z,3.85
2022-10-05T13:16:23.267Z,1.40
2022-10-05T13:19:15.222Z,1.58
2022-10-05T13:22:00.833Z,1.52
2022-10-05T13:25:09.643Z,2.72
2022-10-05T13:27:48.408Z,1.55
2022-10-05T13:30:22.337Z,1.52
2022-10-05T13:33:18.120Z,1.60
2022-10-05T13:35:53.162Z,1.77
2022-10-05T13:38:52.476Z,1.60
2022-10-05T13:42:00.208Z,1.38
2022-10-05T13:44:39.841Z,1.55
2022-10-05T13:47:37.928Z,1.60
2022-10-05T13:50:13.825Z,1.80
2022-10-05T13:52:50.295Z,1.77
2022-10-05T13:55:38.388Z,1.80
2022-10-05T13:58:23.651Z,2.00
2022-10-05T14:00:56.976Z,1.40
2022-10-05T14:06:04.248Z,1.60
2022-10-05T14:08:45.983Z,2.38
2022-10-05T14:11:31.306Z,1.67
2022-10-05T14:14:10.405Z,2.00
2022-10-05T14:17:13.333Z,1.95
2022-10-05T14:19:48.162Z,2.00
2022-10-05T14:22:24.653Z,1.77
2022-10-05T14:24:57.105Z,1.92
2022-10-05T14:27:31.428Z,2.58
2022-10-05T14:30:02.056Z,1.88
2022-10-05T14:32:44.192Z,1.73
2022-10-05T14:35:12.857Z,1.52
2022-10-05T14:38:17.044Z,1.80
2022-10-05T14:43:15.179Z,1.98
2022-10-05T14:45:56.095Z,1.83
2022-10-05T14:48:24.504Z,5.00
2022-10-05T14:50:56.189Z,5.47
2022-10-05T14:53:40.710Z,1.70
2022-10-05T14:56:44.216Z,1.60
2022-10-05T14:59:35.968Z,1.60
2022-10-05T15:02:35.247Z,2.00
2022-10-05T15:05:15.355Z,1.73
2022-10-05T15:07:46.882Z,2.05
2022-10-05T15:10:33.975Z,1.65
2022-10-05T15:13:12.363Z,1.83
2022-10-05T15:15:54.007Z,1.70
2022-10-05T15:18:41.314Z,1.67
2022-10-05T15:21:32.786Z,2.15
2022-10-05T15:24:21.213Z,2.25
2022-10-05T15:26:51.407Z,1.75
2022-10-05T15:29:41.961Z,1.75
2022-10-05T15:32:25.025Z,1.85
2022-10-05T15:35:22.681Z,1.80
2022-10-05T15:38:04.007Z,1.70
2022-10-05T15:40:37.637Z,2.67
2022-10-05T15:43:14.162Z,1.52
2022-10-05T15:45:53.745Z,1.65
2022-10-05T15:48:41.061Z,1.80
2022-10-05T15:51:26.051Z,1.73
2022-10-05T15:54:25.820Z,1.90
2022-10-05T15:57:12.273Z,1.77
2022-10-05T15:59:58.688Z,1.60
2022-10-05T16:02:47.691Z,1.90
2022-10-05T16:05:47.190Z,1.67
2022-10-05T16:08:51.741Z,1.58
2022-10-05T16:11:49.702Z,1.92
2022-10-05T16:14:29.128Z,2.00
2022-10-05T16:17:08.111Z,1.80
2022-10-05T16:19:51.633Z,1.90
2022-10-05T16:22:25.234Z,1.80
2022-10-05T16:24:55.171Z,1.88
2022-10-05T16:27:45.290Z,1.70
2022-10-05T16:30:21.543Z,1.92
2022-10-05T16:33:29.167Z,1.90
2022-10-05T16:36:19.449Z,1.73
2022-10-05T16:39:21.708Z,1.75
2022-10-05T16:42:11.943Z,2.10
2022-10-05T16:44:49.167Z,9.07
2022-10-05T16:47:46.912Z,1.80
2022-10-05T16:50:37.277Z,2.10
2022-10-05T16:53:20.909Z,3.50
2022-10-05T16:55:53.870Z,2.20
2022-10-05T16:58:26.920Z,2.22
2022-10-05T17:01:39.945Z,2.55
2022-10-05T17:04:19.944Z,7.13
2022-10-05T17:07:06.176Z,3.22
2022-10-05T17:09:54.459Z,2.47
2022-10-05T17:12:32.873Z,2.40
2022-10-05T17:15:35.602Z,2.00
2022-10-05T17:18:29.432Z,2.58
2022-10-05T17:21:14.469Z,2.15
2022-10-05T17:24:16.388Z,1.90
2022-10-05T17:26:57.604Z,2.00
2022-10-05T17:29:47.664Z,2.47
2022-10-05T17:32:17.552Z,2.45
2022-10-05T17:35:05.291Z,2.33
2022-10-05T17:37:39.055Z,2.40
2022-10-05T17:40:46.656Z,2.17
2022-10-05T17:43:16.408Z,2.13
2022-10-05T17:45:43.156Z,2.05
2022-10-05T17:48:11.840Z,1.90
2022-10-05T17:51:05.005Z,2.00
2022-10-05T17:54:02.894Z,2.08
2022-10-05T17:56:32.121Z,2.20
2022-10-05T17:59:01.720Z,1.90
2022-10-05T18:01:47.295Z,2.00
2022-10-05T18:04:14.002Z,2.15
2022-10-05T18:06:59.126Z,2.28
2022-10-05T18:09:27.134Z,2.17
2022-10-05T18:12:24.217Z,2.30
2022-10-05T18:15:01.374Z,2.13
2022-10-05T18:17:50.681Z,2.30
2022-10-05T18:20:32.041Z,2.00
2022-10-05T18:23:30.343Z,2.45
2022-10-05T18:26:07.097Z,2.33
2022-10-05T18:29:13.908Z,2.50
2022-10-05T18:32:02.755Z,2.17
2022-10-05T18:35:19.451Z,3.90
2022-10-05T18:38:28.234Z,2.10
2022-10-05T18:41:22.693Z,2.20
2022-10-05T18:44:07.405Z,3.03
2022-10-05T18:46:44.881Z,2.20
2022-10-05T18:49:48.181Z,2.50
2022-10-05T18:52:36.710Z,2.13
2022-10-05T18:55:28.582Z,2.53
2022-10-05T18:58:26.849Z,2.38
2022-10-05T19:01:15.559Z,3.60
2022-10-05T19:03:49.661Z,3.65
2022-10-05T19:06:28.694Z,2.50
2022-10-05T19:09:00.931Z,2.45
2022-10-05T19:11:43.488Z,2.45
2022-10-05T19:14:25.671Z,2.40
2022-10-05T19:17:26.028Z,2.28
2022-10-05T19:20:30.325Z,2.70
2022-10-05T19:23:33.915Z,2.88
2022-10-05T19:26:20.530Z,2.85
2022-10-05T19:29:08.184Z,3.45
2022-10-05T19:31:50.230Z,3.40
2022-10-05T19:34:54.175Z,3.33
2022-10-05T19:37:44.246Z,3.58
2022-10-05T19:40:22.326Z,3.55
2022-10-05T19:43:07.302Z,2.85
2022-10-05T19:45:46.933Z,2.95
2022-10-05T19:48:42.841Z,3.53
2022-10-05T19:51:27.324Z,2.75
2022-10-05T19:53:56.447Z,2.70
2022-10-05T19:56:31.812Z,2.80
2022-10-05T19:59:15.189Z,3.10
2022-10-05T20:01:50.392Z,2.80
2022-10-05T20:04:36.061Z,3.50
2022-10-05T20:07:04.153Z,2.50
2022-10-05T20:09:50.782Z,2.75
2022-10-05T20:12:17.885Z,2.67
2022-10-05T20:15:37.438Z,2.83
2022-10-05T20:18:58.036Z,2.70
2022-10-05T20:22:02.871Z,2.75
2022-10-05T20:24:32.446Z,2.50
2022-10-05T20:27:02.647Z,3.00
2022-10-05T20:29:48.374Z,3.13
2022-10-05T20:32:18.234Z,2.85
2022-10-05T20:34:58.943Z,2.60
2022-10-05T20:37:28.589Z,2.72
2022-10-05T20:39:55.399Z,2.85
2022-10-05T20:42:26.779Z,2.60
2022-10-05T20:44:56.905Z,2.67
2022-10-05T20:47:25.884Z,2.95
2022-10-05T20:49:57.176Z,3.10
2022-10-05T20:52:24.278Z,2.05
2022-10-05T20:54:58.862Z,3.00
2022-10-05T20:57:26.753Z,2.05
2022-10-05T20:59:53.649Z,1.55
2022-10-05T21:02:23.511Z,1.23
2022-10-05T21:04:54.661Z,3.00
2022-10-05T21:07:23.362Z,1.00
2022-10-05T21:09:59.968Z,1.40
2022-10-05T21:12:27.912Z,1.80
2022-10-05T21:14:57.058Z,1.52
2022-10-05T21:17:23.869Z,1.05
2022-10-05T21:19:51.666Z,2.65
2022-10-05T21:22:19.045Z,1.50
2022-10-05T21:24:46.106Z,1.20
2022-10-05T21:27:13.125Z,1.30
2022-10-05T21:29:44.493Z,1.10
2022-10-05T21:32:14.124Z,1.15
2022-10-05T21:34:41.475Z,1.10
2022-10-05T21:37:09.033Z,1.50
2022-10-05T21:39:39.050Z,1.33
2022-10-05T21:42:08.839Z,1.00
2022-10-05T21:44:35.993Z,1.10
2022-10-05T21:47:04.301Z,1.30
2022-10-05T21:49:31.241Z,1.10
2022-10-05T21:52:02.298Z,1.30
2022-10-05T21:54:31.783Z,1.00
2022-10-05T21:57:00.120Z,1.10
2022-10-05T21:59:31.405Z,1.13
2022-10-05T22:01:59.203Z,0.98
2022-10-05T22:04:28.589Z,1.08
2022-10-05T22:06:56.455Z,1.05
2022-10-05T22:09:26.589Z,1.35
2022-10-05T22:11:54.996Z,1.05
2022-10-05T22:14:22.144Z,0.93
2022-10-05T22:16:49.213Z,1.50
2022-10-05T22:19:20.046Z,0.98
2022-10-05T22:21:50.073Z,1.23
2022-10-05T22:24:17.063Z,1.20
2022-10-05T22:26:51.694Z,1.13
2022-10-05T22:29:19.379Z,1.27
2022-10-05T22:31:48.872Z,1.27
2022-10-05T22:34:17.872Z,1.30
2022-10-05T22:36:48.363Z,1.40
2022-10-05T22:39:16.903Z,1.10
2022-10-05T22:41:43.899Z,1.73
2022-10-05T22:44:11.001Z,1.00
2022-10-05T22:46:37.862Z,1.30
2022-10-05T22:49:04.578Z,1.40
2022-10-05T22:51:33.715Z,1.45
2022-10-05T22:54:00.718Z,1.40
2022-10-05T22:56:28.827Z,1.30
2022-10-05T22:58:55.750Z,1.20
2022-10-05T23:01:23.964Z,1.30
2022-10-05T23:03:51.158Z,1.83
2022-10-05T23:06:20.429Z,1.75
2022-10-05T23:08:50.422Z,1.48
2022-10-05T23:11:30.916Z,1.10
2022-10-05T23:13:58.682Z,1.67
2022-10-05T23:16:28.878Z,1.30
2022-10-05T23:18:57.703Z,1.60
2022-10-05T23:21:27.017Z,1.23
2022-10-05T23:23:56.021Z,1.73
2022-10-05T23:26:25.502Z,1.00
2022-10-05T23:28:57.837Z,1.38
2022-10-05T23:31:31.172Z,1.10
2022-10-05T23:33:58.023Z,1.20
2022-10-05T23:36:27.951Z,1.40
2022-10-05T23:39:00.705Z,1.52
2022-10-05T23:41:27.888Z,1.40
2022-10-05T23:43:57.474Z,1.55
2022-10-05T23:46:24.512Z,1.30
2022-10-05T23:48:51.249Z,1.83
2022-10-05T23:51:18.325Z,1.67
2022-10-05T23:53:45.438Z,1.52
2022-10-05T23:56:15.197Z,1.27
2022-10-05T23:58:42.129Z,2.10
